createdAt,value
2023-05-23T00:00:33.712Z,92.00
2023-05-23T00:03:04.896Z,91.74
2023-05-23T00:05:35.495Z,91.17
2023-05-23T00:08:06.074Z,90.52
2023-05-23T00:10:39.049Z,90.47
2023-05-23T00:13:09.773Z,88.27
2023-05-23T00:15:42.008Z,89.48
2023-05-23T00:18:14.080Z,88.63
2023-05-23T00:20:45.788Z,89.44
2023-05-23T00:23:19.618Z,87.24
2023-05-23T00:25:53.577Z,86.81
2023-05-23T00:28:24.440Z,88.49
2023-05-23T00:30:54.685Z,88.22
2023-05-23T00:33:25.118Z,88.82
2023-05-23T00:35:55.619Z,90.00
2023-05-23T00:38:27.013Z,90.33
2023-05-23T00:41:00.733Z,90.04
2023-05-23T00:43:31.792Z,90.63
2023-05-23T00:46:02.831Z,90.94
2023-05-23T00:48:33.896Z,89.49
2023-05-23T00:51:04.497Z,88.60
2023-05-23T00:53:34.938Z,88.60
2023-05-23T00:56:09.329Z,90.02
2023-05-23T00:58:39.865Z,91.43
2023-05-23T01:01:10.940Z,93.68
2023-05-23T01:03:41.499Z,93.59
2023-05-23T01:06:12.566Z,91.67
2023-05-23T01:08:43.382Z,92.19
2023-05-23T01:11:23.091Z,92.20
2023-05-23T01:14:03.020Z,92.33
2023-05-23T01:16:48.976Z,93.90
2023-05-23T01:19:52.442Z,92.71
2023-05-23T01:22:39.711Z,91.96
2023-05-23T01:25:17.432Z,92.30
2023-05-23T01:27:55.135Z,92.31
2023-05-23T01:30:28.111Z,89.94
2023-05-23T01:33:01.849Z,89.20
2023-05-23T01:35:33.196Z,88.75
2023-05-23T01:38:03.776Z,89.05
2023-05-23T01:40:34.182Z,90.35
2023-05-23T01:43:07.916Z,87.50
2023-05-23T01:45:39.143Z,84.23
2023-05-23T01:48:10.734Z,85.12
2023-05-23T01:50:42.213Z,86.37
2023-05-23T01:53:13.888Z,87.11
2023-05-23T01:55:45.754Z,89.35
2023-05-23T01:58:18.851Z,87.52
2023-05-23T02:00:50.034Z,88.59
2023-05-23T02:03:20.772Z,90.00
2023-05-23T02:05:52.561Z,90.20
2023-05-23T02:08:23.016Z,89.52
2023-05-23T02:10:53.959Z,89.83
2023-05-23T02:13:26.976Z,88.96
2023-05-23T02:15:57.687Z,89.33
2023-05-23T02:18:29.602Z,88.08
2023-05-23T02:21:00.083Z,88.61
2023-05-23T02:23:30.569Z,87.75
2023-05-23T02:26:01.112Z,88.58
2023-05-23T02:28:34.139Z,88.36
2023-05-23T02:31:04.982Z,88.91
2023-05-23T02:33:35.814Z,88.51
2023-05-23T02:36:07.126Z,88.34
2023-05-23T02:38:37.847Z,88.55
2023-05-23T02:41:08.644Z,88.40
2023-05-23T02:43:41.542Z,88.90
2023-05-23T02:46:13.872Z,90.15
2023-05-23T02:48:45.643Z,88.78
2023-05-23T02:51:16.654Z,88.76
2023-05-23T02:53:47.255Z,89.04
2023-05-23T02:56:17.623Z,90.53
2023-05-23T02:58:50.736Z,90.99
2023-05-23T03:01:21.228Z,91.36
2023-05-23T03:03:51.800Z,92.41
2023-05-23T03:06:23.030Z,89.85
2023-05-23T03:08:53.657Z,89.02
2023-05-23T03:11:25.036Z,89.66
2023-05-23T03:13:58.136Z,89.36
2023-05-23T03:16:28.735Z,91.18
2023-05-23T03:18:59.330Z,91.43
2023-05-23T03:21:29.943Z,91.83
2023-05-23T03:24:00.564Z,92.14
2023-05-23T03:26:31.065Z,92.46
2023-05-23T03:29:04.200Z,92.18
2023-05-23T03:31:34.738Z,92.21
2023-05-23T03:34:06.020Z,93.77
2023-05-23T03:36:39.505Z,94.08
2023-05-23T03:39:10.016Z,94.41
2023-05-23T03:41:40.534Z,94.01
2023-05-23T03:44:14.947Z,92.93
2023-05-23T03:46:46.063Z,92.77
2023-05-23T03:49:16.724Z,91.69
2023-05-23T03:51:47.258Z,91.51
2023-05-23T03:54:20.576Z,91.95
2023-05-23T03:56:51.223Z,93.59
2023-05-23T03:59:24.553Z,94.41
2023-05-23T04:01:55.396Z,94.85
2023-05-23T04:04:26.548Z,94.66
2023-05-23T04:06:58.322Z,95.49
2023-05-23T04:09:28.926Z,96.94
2023-05-23T04:12:01.339Z,98.19
2023-05-23T04:14:35.353Z,99.35
2023-05-23T04:17:06.047Z,100.00
2023-05-23T04:19:36.455Z,100.00
2023-05-23T04:22:07.129Z,100.00
2023-05-23T04:24:37.565Z,100.00
2023-05-23T04:27:08.955Z,100.00
2023-05-23T04:29:44.460Z,100.00
2023-05-23T04:32:17.040Z,100.00
2023-05-23T04:34:47.531Z,100.00
2023-05-23T04:37:22.389Z,100.00
2023-05-23T04:39:53.340Z,100.00
2023-05-23T04:42:42.598Z,100.00
2023-05-23T04:45:27.318Z,100.00
2023-05-23T04:48:03.200Z,100.00
2023-05-23T04:50:47.887Z,100.00
2023-05-23T04:53:18.802Z,99.35
2023-05-23T04:55:49.219Z,100.00
2023-05-23T04:58:21.826Z,100.00
2023-05-23T05:00:55.868Z,99.51
2023-05-23T05:03:26.778Z,99.50
2023-05-23T05:05:58.179Z,99.79
2023-05-23T05:08:28.828Z,100.00
2023-05-23T05:10:59.935Z,99.70
2023-05-23T05:13:30.633Z,98.63
2023-05-23T05:16:05.026Z,97.26
2023-05-23T05:18:36.609Z,96.72
2023-05-23T05:21:08.378Z,96.56
2023-05-23T05:23:41.226Z,96.19
2023-05-23T05:26:12.796Z,94.66
2023-05-23T05:28:43.770Z,95.24
2023-05-23T05:31:17.426Z,94.79
2023-05-23T05:33:48.128Z,94.72
2023-05-23T05:36:19.936Z,95.72
2023-05-23T05:38:50.178Z,95.45
2023-05-23T05:41:23.627Z,95.58
2023-05-23T05:43:57.094Z,93.93
2023-05-23T05:46:30.724Z,95.15
2023-05-23T05:49:01.733Z,95.49
2023-05-23T05:51:32.464Z,97.49
2023-05-23T05:54:03.130Z,96.32
2023-05-23T05:56:33.653Z,97.96
2023-05-23T05:59:04.025Z,96.49
2023-05-23T06:01:38.161Z,98.08
2023-05-23T06:04:09.800Z,98.76
2023-05-23T06:06:40.871Z,97.53
2023-05-23T06:09:13.221Z,97.09
2023-05-23T06:11:43.717Z,96.56
2023-05-23T06:14:14.277Z,95.52
2023-05-23T06:16:50.911Z,95.21
2023-05-23T06:19:21.419Z,95.53
2023-05-23T06:21:52.070Z,96.61
2023-05-23T06:24:23.802Z,96.01
2023-05-23T06:26:54.356Z,96.36
2023-05-23T06:29:24.825Z,93.84
2023-05-23T06:31:57.957Z,93.44
2023-05-23T06:34:29.068Z,91.91
2023-05-23T06:36:59.378Z,92.95
2023-05-23T06:39:29.810Z,93.44
2023-05-23T06:42:01.631Z,90.44
2023-05-23T06:44:42.549Z,89.41
2023-05-23T06:47:18.047Z,89.46
2023-05-23T06:49:48.668Z,90.51
2023-05-23T06:52:19.248Z,89.18
2023-05-23T06:54:49.823Z,90.36
2023-05-23T06:57:20.436Z,90.63
2023-05-23T06:59:51.214Z,90.34
2023-05-23T07:02:24.430Z,91.68
2023-05-23T07:04:55.137Z,91.89
2023-05-23T07:07:45.911Z,91.90
2023-05-23T07:10:16.539Z,91.96
2023-05-23T07:12:49.601Z,93.02
2023-05-23T07:15:21.907Z,93.51
2023-05-23T07:18:06.620Z,92.63
2023-05-23T07:20:37.524Z,93.09
2023-05-23T07:23:16.040Z,93.84
2023-05-23T07:26:01.170Z,94.32
2023-05-23T07:28:41.083Z,93.66
2023-05-23T07:31:12.339Z,93.74
2023-05-23T07:33:45.688Z,93.17
2023-05-23T07:36:22.695Z,93.01
2023-05-23T07:38:54.568Z,92.29
2023-05-23T07:41:25.317Z,92.48
2023-05-23T07:43:56.069Z,92.12
2023-05-23T07:46:26.436Z,92.02
2023-05-23T07:48:59.845Z,91.33
2023-05-23T07:51:31.135Z,92.23
2023-05-23T07:54:02.892Z,93.69
2023-05-23T07:56:33.748Z,92.50
2023-05-23T07:59:04.001Z,92.90
2023-05-23T08:01:34.534Z,92.37
2023-05-23T08:04:13.517Z,91.60
2023-05-23T08:07:04.323Z,92.13
2023-05-23T08:09:48.835Z,93.01
2023-05-23T08:12:22.506Z,93.13
2023-05-23T08:15:01.709Z,93.86
2023-05-23T08:17:36.433Z,94.50
2023-05-23T08:20:12.435Z,95.02
2023-05-23T08:22:43.272Z,96.06
2023-05-23T08:25:14.214Z,95.70
2023-05-23T08:27:44.747Z,94.91
2023-05-23T08:30:32.990Z,94.63
2023-05-23T08:33:04.981Z,93.27
2023-05-23T08:35:39.144Z,93.54
2023-05-23T08:38:14.474Z,94.49
2023-05-23T08:41:04.853Z,95.83
2023-05-23T08:43:35.662Z,96.56
2023-05-23T08:46:07.296Z,98.88
2023-05-23T08:48:41.802Z,98.53
2023-05-23T08:51:18.161Z,98.82
2023-05-23T08:53:53.803Z,100.00
2023-05-23T08:56:28.774Z,100.00
2023-05-23T08:59:02.343Z,100.00
2023-05-23T09:01:34.643Z,98.73
2023-05-23T09:04:09.415Z,95.97
2023-05-23T09:07:03.750Z,95.85
2023-05-23T09:09:35.195Z,93.27
2023-05-23T09:12:10.466Z,90.70
2023-05-23T09:14:41.732Z,89.44
2023-05-23T09:17:13.170Z,89.15
2023-05-23T09:19:46.199Z,88.54
2023-05-23T09:22:33.682Z,87.43
2023-05-23T09:25:11.099Z,86.49
2023-05-23T09:27:47.512Z,85.80
2023-05-23T09:30:19.527Z,86.46
2023-05-23T09:33:05.748Z,87.18
2023-05-23T09:35:37.098Z,86.83
2023-05-23T09:38:11.634Z,86.56
2023-05-23T09:40:48.773Z,85.86
2023-05-23T09:43:21.197Z,86.93
2023-05-23T09:45:56.580Z,87.52
2023-05-23T09:48:33.748Z,87.38
2023-05-23T09:51:08.860Z,85.14
2023-05-23T09:53:42.334Z,84.69
2023-05-23T09:56:15.538Z,86.24
2023-05-23T09:58:52.024Z,85.91
2023-05-23T10:01:23.205Z,85.49
2023-05-23T10:04:00.144Z,83.74
2023-05-23T10:06:36.708Z,84.17
2023-05-23T10:09:15.550Z,84.40
2023-05-23T10:12:48.079Z,83.70
2023-05-23T10:15:20.380Z,83.25
2023-05-23T10:18:09.281Z,82.92
2023-05-23T10:20:43.575Z,83.18
2023-05-23T10:23:15.877Z,83.09
2023-05-23T10:25:50.466Z,83.68
2023-05-23T10:28:21.449Z,82.04
2023-05-23T10:30:52.228Z,77.55
2023-05-23T10:33:23.328Z,76.81
2023-05-23T10:36:00.670Z,76.51
2023-05-23T10:38:39.924Z,74.84
2023-05-23T10:41:20.112Z,76.27
2023-05-23T10:44:00.381Z,74.82
2023-05-23T10:46:55.649Z,73.60
2023-05-23T10:49:41.775Z,73.79
2023-05-23T10:52:16.796Z,73.35
2023-05-23T10:54:49.725Z,72.27
2023-05-23T10:57:25.784Z,70.48
2023-05-23T10:59:56.624Z,70.72
2023-05-23T11:02:30.687Z,70.52
2023-05-23T11:05:23.780Z,69.17
2023-05-23T11:08:14.131Z,69.75
2023-05-23T11:11:02.066Z,69.82
2023-05-23T11:14:04.737Z,70.39
2023-05-23T11:16:37.754Z,70.16
2023-05-23T11:19:30.939Z,68.95
2023-05-23T11:22:04.191Z,69.56
2023-05-23T11:24:53.838Z,68.77
2023-05-23T11:27:29.964Z,67.35
2023-05-23T11:30:07.390Z,67.30
2023-05-23T11:32:38.317Z,67.16
2023-05-23T11:35:13.299Z,67.70
2023-05-23T11:37:43.940Z,67.61
2023-05-23T11:40:29.878Z,68.44
2023-05-23T11:43:00.889Z,69.29
2023-05-23T11:45:35.128Z,70.20
2023-05-23T11:48:10.353Z,71.50
2023-05-23T11:50:48.965Z,72.35
2023-05-23T11:53:21.941Z,72.15
2023-05-23T11:55:54.819Z,72.04
2023-05-23T11:58:29.017Z,71.91
2023-05-23T12:01:08.478Z,72.10
2023-05-23T12:03:47.840Z,72.58
2023-05-23T12:06:19.184Z,72.49
2023-05-23T12:08:50.471Z,73.48
2023-05-23T12:11:20.798Z,74.36
2023-05-23T12:13:52.117Z,75.76
2023-05-23T12:16:25.020Z,77.25
2023-05-23T12:18:56.658Z,77.83
2023-05-23T12:21:28.774Z,77.01
2023-05-23T12:24:00.262Z,76.99
2023-05-23T12:26:30.778Z,75.92
2023-05-23T12:29:01.636Z,76.46
2023-05-23T12:31:34.450Z,76.60
2023-05-23T12:34:05.011Z,76.08
2023-05-23T12:36:41.916Z,75.38
2023-05-23T12:39:19.157Z,75.63
2023-05-23T12:41:49.361Z,75.16
2023-05-23T12:44:19.746Z,75.37
2023-05-23T12:46:52.745Z,76.24
2023-05-23T12:49:23.064Z,76.50
2023-05-23T12:51:53.244Z,76.25
2023-05-23T12:54:23.499Z,76.04
2023-05-23T12:56:53.914Z,75.23
2023-05-23T12:59:24.218Z,75.44
2023-05-23T13:01:58.565Z,75.20
2023-05-23T13:04:31.092Z,75.67
2023-05-23T13:07:02.434Z,76.26
2023-05-23T13:09:32.707Z,76.06
2023-05-23T13:12:02.943Z,76.29
2023-05-23T13:14:33.170Z,77.38
2023-05-23T13:17:08.578Z,77.55
2023-05-23T13:19:39.481Z,78.05
2023-05-23T13:22:10.753Z,79.47
2023-05-23T13:24:41.085Z,79.20
2023-05-23T13:27:11.364Z,78.87
2023-05-23T13:29:42.283Z,79.71
2023-05-23T13:32:15.102Z,80.70
2023-05-23T13:34:45.811Z,81.67
2023-05-23T13:37:16.056Z,83.06
2023-05-23T13:39:46.232Z,86.67
2023-05-23T13:42:16.421Z,90.72
2023-05-23T13:44:46.612Z,93.89
2023-05-23T13:47:19.482Z,96.16
2023-05-23T13:49:49.735Z,96.39
2023-05-23T13:52:20.411Z,98.27
2023-05-23T13:54:51.001Z,99.55
2023-05-23T13:57:21.206Z,100.00
2023-05-23T13:59:51.762Z,100.00
2023-05-23T14:02:24.658Z,100.00
2023-05-23T14:04:54.956Z,100.00
2023-05-23T14:07:25.295Z,100.00
2023-05-23T14:09:55.858Z,100.00
2023-05-23T14:12:26.378Z,99.60
2023-05-23T14:14:56.753Z,99.23
2023-05-23T14:17:29.589Z,99.90
2023-05-23T14:19:59.815Z,98.96
2023-05-23T14:22:30.127Z,100.00
2023-05-23T14:25:01.150Z,100.00
2023-05-23T14:27:31.337Z,100.00
2023-05-23T14:30:04.686Z,100.00
2023-05-23T14:32:39.331Z,100.00
2023-05-23T14:35:11.035Z,100.00
2023-05-23T14:37:41.918Z,99.46
2023-05-23T14:40:14.474Z,99.07
2023-05-23T14:42:44.791Z,99.17
2023-05-23T14:45:17.812Z,100.00
2023-05-23T14:47:51.772Z,100.00
2023-05-23T14:50:22.394Z,100.00
2023-05-23T14:52:52.584Z,100.00
2023-05-23T14:55:22.909Z,100.00
2023-05-23T14:57:53.066Z,100.00
2023-05-23T15:00:23.876Z,100.00
2023-05-23T15:02:56.939Z,100.00
2023-05-23T15:05:27.227Z,100.00
2023-05-23T15:07:57.605Z,100.00
2023-05-23T15:10:27.999Z,100.00
2023-05-23T15:12:58.475Z,100.00
2023-05-23T15:15:37.267Z,100.00
2023-05-23T15:18:12.022Z,100.00
2023-05-23T15:20:42.439Z,100.00
2023-05-23T15:23:13.457Z,100.00
2023-05-23T15:25:49.034Z,100.00
2023-05-23T15:28:19.920Z,100.00
2023-05-23T15:30:50.172Z,100.00
2023-05-23T15:33:23.047Z,100.00
2023-05-23T15:35:54.118Z,100.00
2023-05-23T15:38:24.605Z,100.00
2023-05-23T15:40:56.711Z,100.00
2023-05-23T15:43:26.970Z,100.00
2023-05-23T15:45:57.373Z,100.00
2023-05-23T15:48:30.350Z,100.00
2023-05-23T15:51:00.621Z,99.85
2023-05-23T15:53:34.259Z,99.36
2023-05-23T15:56:07.680Z,98.75
2023-05-23T15:58:37.859Z,98.91
2023-05-23T16:01:09.895Z,98.64
2023-05-23T16:03:42.911Z,97.93
2023-05-23T16:06:13.102Z,97.72
2023-05-23T16:08:43.320Z,97.77
2023-05-23T16:11:13.548Z,97.65
2023-05-23T16:13:43.777Z,98.34
2023-05-23T16:16:14.125Z,96.75
2023-05-23T16:18:47.103Z,96.05
2023-05-23T16:21:20.768Z,96.46
2023-05-23T16:23:51.716Z,96.63
2023-05-23T16:26:22.016Z,97.11
2023-05-23T16:28:52.232Z,97.87
2023-05-23T16:31:28.974Z,98.70
2023-05-23T16:34:01.989Z,97.56
2023-05-23T16:36:32.773Z,98.46
2023-05-23T16:39:02.946Z,98.23
2023-05-23T16:41:33.212Z,99.33
2023-05-23T16:44:03.435Z,99.98
2023-05-23T16:46:33.763Z,100.00
2023-05-23T16:49:06.581Z,100.00
2023-05-23T16:51:36.832Z,100.00
2023-05-23T16:54:07.208Z,100.00
2023-05-23T16:56:39.102Z,100.00
2023-05-23T16:59:09.520Z,100.00
2023-05-23T17:01:40.013Z,100.00
2023-05-23T17:04:12.953Z,100.00
2023-05-23T17:06:43.416Z,100.00
2023-05-23T17:09:13.743Z,100.00
2023-05-23T17:11:44.177Z,100.00
2023-05-23T17:14:14.485Z,100.00
2023-05-23T17:16:44.727Z,100.00
2023-05-23T17:19:18.273Z,100.00
2023-05-23T17:21:48.568Z,100.00
2023-05-23T17:24:19.102Z,100.00
2023-05-23T17:26:49.715Z,100.00
2023-05-23T17:29:20.640Z,100.00
2023-05-23T17:31:51.511Z,100.00
2023-05-23T17:34:24.882Z,100.00
2023-05-23T17:36:55.483Z,100.00
2023-05-23T17:39:26.032Z,100.00
2023-05-23T17:41:56.548Z,100.00
2023-05-23T17:44:27.132Z,100.00
2023-05-23T17:46:57.807Z,100.00
2023-05-23T17:49:31.055Z,100.00
2023-05-23T17:52:04.959Z,100.00
2023-05-23T17:54:35.730Z,100.00
2023-05-23T17:57:07.034Z,100.00
2023-05-23T17:59:37.682Z,100.00
2023-05-23T18:02:10.911Z,100.00
2023-05-23T18:04:45.157Z,100.00
2023-05-23T18:07:18.842Z,100.00
2023-05-23T18:09:49.473Z,100.00
2023-05-23T18:12:20.271Z,100.00
2023-05-23T18:14:52.406Z,100.00
2023-05-23T18:17:23.149Z,100.00
2023-05-23T18:19:59.085Z,100.00
2023-05-23T18:22:31.894Z,100.00
2023-05-23T18:25:02.636Z,100.00
2023-05-23T18:27:34.427Z,100.00
2023-05-23T18:30:05.044Z,100.00
2023-05-23T18:32:35.730Z,100.00
2023-05-23T18:35:10.790Z,100.00
2023-05-23T18:37:41.867Z,100.00
2023-05-23T18:40:13.625Z,100.00
2023-05-23T18:42:44.205Z,100.00
2023-05-23T18:45:14.924Z,100.00
2023-05-23T18:47:45.595Z,100.00
2023-05-23T18:50:19.047Z,100.00
2023-05-23T18:52:49.622Z,100.00
2023-05-23T18:55:20.536Z,100.00
2023-05-23T18:57:51.022Z,100.00
2023-05-23T19:00:22.044Z,100.00
2023-05-23T19:02:52.334Z,100.00
2023-05-23T19:05:26.954Z,100.00
2023-05-23T19:07:57.602Z,100.00
2023-05-23T19:10:28.275Z,100.00
2023-05-23T19:12:58.821Z,100.00
2023-05-23T19:15:29.586Z,100.00
2023-05-23T19:18:00.085Z,100.00
2023-05-23T19:20:33.248Z,100.00
2023-05-23T19:23:04.387Z,100.00
2023-05-23T19:25:35.037Z,100.00
2023-05-23T19:28:06.287Z,100.00
2023-05-23T19:30:38.545Z,100.00
2023-05-23T19:33:09.237Z,100.00
2023-05-23T19:35:42.647Z,100.00
2023-05-23T19:38:13.230Z,100.00
2023-05-23T19:40:43.923Z,100.00
2023-05-23T19:43:14.611Z,100.00
2023-05-23T19:45:45.458Z,100.00
2023-05-23T19:48:16.279Z,100.00
2023-05-23T19:50:49.665Z,100.00
2023-05-23T19:53:20.297Z,100.00
2023-05-23T19:55:51.008Z,100.00
2023-05-23T19:58:21.923Z,100.00
2023-05-23T20:00:52.509Z,100.00
2023-05-23T20:03:23.255Z,100.00
2023-05-23T20:05:56.969Z,100.00
2023-05-23T20:08:27.750Z,100.00
2023-05-23T20:10:59.590Z,100.00
2023-05-23T20:13:30.985Z,100.00
2023-05-23T20:16:02.081Z,100.00
2023-05-23T20:18:32.765Z,100.00
2023-05-23T20:21:05.991Z,100.00
2023-05-23T20:23:37.242Z,100.00
2023-05-23T20:26:09.517Z,100.00
2023-05-23T20:28:40.387Z,100.00
2023-05-23T20:31:10.982Z,100.00
2023-05-23T20:33:41.502Z,100.00
2023-05-23T20:36:14.709Z,100.00
2023-05-23T20:38:45.199Z,100.00
2023-05-23T20:41:15.759Z,100.00
2023-05-23T20:43:46.672Z,100.00
2023-05-23T20:46:17.272Z,100.00
2023-05-23T20:48:47.809Z,100.00
2023-05-23T20:51:21.210Z,100.00
2023-05-23T20:53:51.925Z,100.00
2023-05-23T20:56:22.832Z,100.00
2023-05-23T20:58:53.120Z,100.00
2023-05-23T21:01:24.636Z,100.00
2023-05-23T21:03:55.388Z,100.00
2023-05-23T21:06:28.582Z,100.00
2023-05-23T21:08:59.167Z,100.00
2023-05-23T21:11:29.662Z,100.00
2023-05-23T21:14:00.414Z,100.00
2023-05-23T21:16:33.335Z,100.00
2023-05-23T21:19:04.280Z,99.21
2023-05-23T21:21:37.778Z,97.26
2023-05-23T21:24:08.603Z,96.84
2023-05-23T21:26:39.269Z,97.00
2023-05-23T21:29:10.051Z,96.07
2023-05-23T21:31:42.130Z,96.05
2023-05-23T21:34:23.206Z,93.01
2023-05-23T21:36:57.837Z,92.89
2023-05-23T21:39:39.190Z,92.52
2023-05-23T21:42:17.780Z,92.25
2023-05-23T21:44:48.366Z,92.10
2023-05-23T21:47:19.366Z,91.18
2023-05-23T21:49:49.642Z,89.96
2023-05-23T21:52:22.818Z,91.11
2023-05-23T21:54:53.386Z,90.33
2023-05-23T21:57:23.846Z,89.69
2023-05-23T21:59:54.543Z,88.81
2023-05-23T22:02:25.155Z,88.65
2023-05-23T22:04:56.049Z,87.27
2023-05-23T22:07:29.703Z,86.84
2023-05-23T22:10:03.020Z,87.41
2023-05-23T22:12:33.910Z,87.41
2023-05-23T22:15:04.532Z,87.10
2023-05-23T22:17:35.295Z,86.06
2023-05-23T22:20:07.508Z,84.76
2023-05-23T22:22:40.963Z,85.60
2023-05-23T22:25:12.524Z,85.38
2023-05-23T22:27:43.113Z,85.41
2023-05-23T22:30:15.222Z,84.31
2023-05-23T22:32:45.934Z,84.26
2023-05-23T22:35:16.590Z,84.47
2023-05-23T22:37:50.268Z,84.15
2023-05-23T22:40:21.086Z,82.95
2023-05-23T22:42:51.767Z,82.88
2023-05-23T22:45:22.489Z,83.16
2023-05-23T22:47:54.310Z,83.48
2023-05-23T22:50:27.248Z,83.93
2023-05-23T22:53:01.126Z,82.68
2023-05-23T22:55:31.638Z,82.12
2023-05-23T22:58:02.110Z,82.45
2023-05-23T23:00:32.744Z,82.85
2023-05-23T23:03:04.186Z,82.42
2023-05-23T23:05:35.006Z,81.57
2023-05-23T23:08:08.310Z,81.58
2023-05-23T23:10:39.033Z,81.05
2023-05-23T23:13:09.646Z,80.86
2023-05-23T23:15:40.577Z,80.79
2023-05-23T23:18:13.770Z,80.89
2023-05-23T23:20:44.905Z,80.87
2023-05-23T23:23:18.403Z,81.14
2023-05-23T23:25:50.444Z,80.73
2023-05-23T23:28:21.126Z,80.96
2023-05-23T23:30:51.833Z,80.27
2023-05-23T23:33:22.335Z,80.11
2023-05-23T23:35:53.345Z,79.75
2023-05-23T23:38:26.136Z,79.46
2023-05-23T23:40:56.676Z,79.90
2023-05-23T23:43:27.307Z,79.76
2023-05-23T23:45:57.915Z,79.62
2023-05-23T23:48:28.496Z,79.31
2023-05-23T23:50:59.142Z,79.70
2023-05-23T23:53:32.214Z,79.12
2023-05-23T23:56:02.899Z,78.91
2023-05-23T23:58:33.392Z,79.22
